Championnats de Nationale 2 d'été

Interrégionale

MULHOUSE

Du Jeudi 07 Juillet 2016 au Dimanche 10 Juillet 2016

Bassin de 50m

100 Brasse Dames

Séries

Nom Année Club Pays Temps Points Niv.
1 MALLET Camille 2001 AMIENS METROPOLE NAT. FRA 1:15:59 1181
2 COLLOT Lilou 2002 P.V GRANDVILLIERS NATATION FRA 1:16:59 1156
3 HENRY Emilie 1999 DAUPHINS OBERNAI FRA 1:18:41 1113
4 STUDER Camille 2000 THANN OLYMPIC N FRA 1:18:42 1112
5 VINOT Lucie 1998 ASPTT NANCY FRA 1:18:63 1107
6 DEPARIS Camille 2000 SC LANEUVEVILLE FRA 1:18:82 1103
7 RAMBUR Alizé 1995 GRAVELINES NATATION FRA 1:19:40 1089
8 LAJOIE Sybille 1998 REIMS NATATION 89 FRA 1:20:10 1073
9 VIENNET Blanche 2001 TCN CHAMPIGNEULLES FRA 1:20:11 1072
10 BRUZZO Aurore 2000 SENS NATATION FRA 1:20:12 1072
11 GERARD Perrine 2001 SR COLMAR FRA 1:20:33 1067
12 LARUE Chrystal 2000 CN VOUZIERS FRA 1:20:35 1067
13 BASTIEN Lola 2002 SC LANEUVEVILLE FRA 1:20:43 1065
14 DEVILLARD Léna 2001 CN NEUFCHÂTEAU FRA 1:20:47 1064
15 POINTET Jeanne 2001 NATATION VESOUL-NOIDANS FRA 1:20:57 1062
16 GRANDJEAN Juline 2001 TROYES ON FRA 1:20:67 1059
17 PAGANELLI Sarah 2000 USB LONGWY NATATION FRA 1:20:78 1057
18 BEE Aure 2000 SN METZ FRA 1:20:83 1056
19 LAGNEAU Angélina 2000 CN FOURMIES FRA 1:21:08 1050
20 LINDAUER Emma 2003 ERSTEIN AQUATIC CLUB FRA 1:21:23 1047
21 HOMEL Léna 1999 SC NATATION ABBEVILLE FRA 1:21:46 1041
22 VANDEWALLE Lea 2002 CN CAMBRAI FRA 1:21:47 1041
23 LINDAUER Clémence 2002 ERSTEIN AQUATIC CLUB FRA 1:21:59 1038
24 FOURNERET Julie 2001 CN CHALON-SUR-SAONE FRA 1:21:72 1035
25 NICOLOSO Salomé 2001 SR CERNAY FRA 1:21:72 1035
26 JOFFROY Amandine 2000 CN SÉZANNE FRA 1:21:77 1034
27 GIORDANELLA Lilou 2002 ALLIANCE DIJON NATATION FRA 1:21:88 1032
28 JOLY Cloe 2002 REIMS CHAMPAGNE NATATION FRA 1:22:07 1027
29 LEPERS Julia 2001 DAUPHINS WATTRELOS FRA 1:22:59 1015
30 PEYRAUT Emma 2002 A.S.M BELFORT NATATION FRA 1:22:75 1012
31 THIARD Ameline 1999 REIMS NATATION 89 FRA 1:22:91 1008
32 LAKOMY Christiana 2002 VAL DE GRAY NATATION FRA 1:23:49 995
33 VAUDOIS Chloé 1998 SN METZ FRA 1:23:59 993
34 ORIGER Marie 2002 USB LONGWY NATATION FRA 1:23:69 991
35 BERLANCOURT Cecile 2001 ALLIANCE DIJON NATATION FRA 1:23:75 989
36 AKSAS Inès 2000 CHARLEVILLE-MÉZIÈRES NATATION FRA 1:23:86 987
37 CHANOIR Laura 2001 REIMS NATATION 89 FRA 1:23:89 986
38 NOTEBAERT Elsa 2001 SN LENS FRA 1:23:93 985
39 VAN GINDERACHTER Justine 1998 STADE BÉTHUNE PÉLICAN CLUB FRA 1:23:97 984
40 GEORGES Delphine 2002 LILLE UC NATATION FRA 1:24:21 979
41 GAUTHIER-GENSOUL Candice 2002 NEPTUNE AQUA CLUB VERTUS FRA 1:24:22 979
42 BONNOT Leslie 2002 MONTCEAU ON FRA 1:24:25 978
43 HARDY Océane 2001 AMIENS METROPOLE NAT. FRA 1:24:38 975
44 LE GOFF Roxane 2001 SENS NATATION FRA 1:24:55 971
45 CHAMPAGNE Marie 2000 STADE BÉTHUNE PÉLICAN CLUB FRA 1:24:72 968
46 REGENWETTER Laura 2002 CN VAL DE FENSCH SERÉMANGE FRA 1:24:84 965
47 DUCHEMIN Eléonore 2001 CN SÉZANNE FRA 1:25:00 961
48 MOREAUX Estrella 2001 CN SÉZANNE FRA 1:25:07 960
49 BONTEMPS Laura 2002 BRUYÈRES NATATION FRA 1:25:12 959
50 KOENIG Amélie 2002 CN ST-AVOLD FRA 1:25:86 942
51 CARNEZ Oceane 2002 CN DIVION FRA 1:27:10 916
52 ANDREOLI Justine 2002 AS TONNERRE FRA 1:27:89 899
53 BROUTIN Anne-Cecile 2001 SR COLMAR FRA 1:28:20 892
54 CUNY Montaine 2002 ASPTT NANCY FRA 1:28:23 891
55 EGMANN Manon 2002 A.N.S D'ILLFURTH FRA 1:28:32 889
56 CASTELAN Leana 2001 BERCK NATATION FRA 1:28:40 888
57 FILLIOUX Félicie 2001 AC MOLSHEIM MUTZIG FRA 1:28:66 882

Finale A

Nom Année Club Pays Temps Points Niv.
1 MALLET Camille 2001 AMIENS METROPOLE NAT. FRA 1:15:43 1185
2 STUDER Camille 2000 THANN OLYMPIC N FRA 1:16:61 1156
3 DEPARIS Camille 2000 SC LANEUVEVILLE FRA 1:16:73 1153
4 COLLOT Lilou 2002 P.V GRANDVILLIERS NATATION FRA 1:17:41 1136
5 HENRY Emilie 1999 DAUPHINS OBERNAI FRA 1:18:12 1119
6 VINOT Lucie 1998 ASPTT NANCY FRA 1:18:35 1114
7 LAJOIE Sybille 1998 REIMS NATATION 89 FRA 1:18:77 1104
8 RAMBUR Alizé 1995 GRAVELINES NATATION FRA 1:18:77 1104

Finale B

Nom Année Club Pays Temps Points Niv.
1 BASTIEN Lola 2002 SC LANEUVEVILLE FRA 1:17:73 1129
2 POINTET Jeanne 2001 NATATION VESOUL-NOIDANS FRA 1:18:69 1106
3 GERARD Perrine 2001 SR COLMAR FRA 1:18:69 1106
4 VIENNET Blanche 2001 TCN CHAMPIGNEULLES FRA 1:19:49 1087
5 DEVILLARD Léna 2001 CN NEUFCHÂTEAU FRA 1:19:60 1084
6 LARUE Chrystal 2000 CN VOUZIERS FRA 1:20:16 1071
7 BRUZZO Aurore 2000 SENS NATATION FRA 1:21:53 1040
8 GRANDJEAN Juline 2001 TROYES ON FRA 1:22:75 1012

Finale C

Nom Année Club Pays Temps Points Niv.
1 VANDEWALLE Lea 2002 CN CAMBRAI FRA 1:20:69 1059
2 LINDAUER Emma 2003 ERSTEIN AQUATIC CLUB FRA 1:20:74 1058
3 JOLY Cloe 2002 REIMS CHAMPAGNE NATATION FRA 1:21:21 1047
4 LEPERS Julia 2001 DAUPHINS WATTRELOS FRA 1:21:74 1035
5 FOURNERET Julie 2001 CN CHALON-SUR-SAONE FRA 1:21:90 1031
6 LINDAUER Clémence 2002 ERSTEIN AQUATIC CLUB FRA 1:22:82 1010
7 GIORDANELLA Lilou 2002 ALLIANCE DIJON NATATION FRA 1:22:95 1007
8 NICOLOSO Salomé 2001 SR CERNAY FRA 1:23:30 999